CST,Max TemperatureF,Mean TemperatureF,Min TemperatureF,Max Dew PointF,MeanDew PointF,Min DewpointF,Max Humidity, Mean Humidity, Min Humidity, Max Sea Level PressureIn, Mean Sea Level PressureIn, Min Sea Level PressureIn, Max VisibilityMiles, Mean VisibilityMiles, Min VisibilityMiles, Max Wind SpeedMPH, Mean Wind SpeedMPH, Max Gust SpeedMPH,PrecipitationIn, CloudCover, Events, WindDirDegrees
2013-1-1,34,32,29,31,27,25,89,79,69,30.34,30.24,30.11,10,8,7,20,11,23,T,8,,335
2013-1-2,46,35,23,26,24,21,92,69,45,30.37,30.32,30.25,10,8,4,13,6,16,0.00,1,,308
2013-1-3,47,36,24,27,24,21,88,63,37,30.52,30.45,30.35,10,10,10,14,6,17,0.00,2,,342
2013-1-4,46,37,27,34,29,24,85,69,53,30.52,30.42,30.33,10,10,10,15,5,18,T,7,,201
2013-1-5,53,42,30,34,29,23,96,65,33,30.34,30.26,30.18,10,10,7,17,10,24,0.00,2,,236
2013-1-6,55,41,27,27,24,23,78,54,29,30.46,30.37,30.34,10,10,10,12,5,15,0.00,0,,328
2013-1-7,53,39,25,32,26,20,88,61,32,30.32,30.21,30.09,10,10,10,13,4,,0.00,5,,161
2013-1-8,51,45,39,47,41,31,97,82,59,30.12,30.05,30.00,10,8,2,13,6,,0.08,8,Rain,113
2013-1-9,53,50,47,52,48,46,100,97,93,30.22,30.11,30.00,10,4,2,26,16,32,0.24,8,Rain,38
2013-1-10,56,52,47,52,50,45,100,86,72,29.99,29.91,29.85,10,7,2,22,10,26,0.14,7,Rain,156
2013-1-11,76,60,44,52,46,42,93,64,35,29.87,29.76,29.66,10,10,10,30,14,37,0.00,3,,193
2013-1-12,61,46,30,44,27,16,73,57,33,30.08,29.91,29.78,10,10,10,25,15,32,0.00,5,,2
2013-1-13,36,28,20,17,14,12,77,58,38,30.37,30.26,30.08,10,10,10,23,13,26,T,1,,6
2013-1-14,41,30,19,16,14,10,77,53,28,30.42,30.33,30.25,10,10,10,21,12,24,0.00,2,,30
2013-1-15,38,29,20,19,16,14,81,59,37,30.30,30.27,30.24,10,10,10,15,9,18,0.00,5,,357
2013-1-16,50,34,17,28,18,12,84,54,23,30.30,30.24,30.15,10,10,10,15,7,20,0.00,1,,276
2013-1-17,58,44,29,31,29,27,82,58,33,30.53,30.44,30.28,10,10,10,15,7,20,0.00,0,,348
2013-1-18,63,45,27,31,28,24,92,60,27,30.51,30.35,30.19,10,10,10,18,9,22,0.00,0,,178
2013-1-19,66,50,33,34,32,29,82,56,29,30.21,30.16,30.08,10,10,10,16,8,20,0.00,0,,191
2013-1-20,68,50,32,41,34,29,89,59,28,30.22,30.16,30.07,10,10,10,12,5,14,0.00,0,,353
2013-1-21,47,37,27,34,19,14,76,54,31,30.40,30.30,30.19,10,10,10,20,11,24,0.00,0,,5
2013-1-22,64,45,26,39,29,20,75,54,32,30.30,30.22,30.14,10,10,10,16,6,24,0.00,1,,163
2013-1-23,74,56,37,52,45,37,100,71,41,30.22,30.15,30.07,10,9,4,15,7,20,0.00,1,,191
2013-1-24,52,44,36,46,39,31,100,77,54,30.20,30.14,30.09,10,5,0,17,7,20,0.00,4,Fog,354
2013-1-25,49,40,30,35,31,25,85,73,60,30.24,30.18,30.10,10,8,3,21,8,28,0.00,5,,19
2013-1-26,58,44,30,48,38,28,96,73,50,30.23,30.13,30.04,10,8,4,16,6,30,0.00,2,,98
2013-1-27,75,63,50,56,53,49,100,75,49,30.02,29.93,29.82,10,7,1,31,17,40,0.00,4,,167
2013-1-28,81,70,58,62,59,56,97,71,45,29.93,29.82,29.71,10,9,6,26,14,32,0.00,4,,184
2013-1-29,69,56,42,63,49,24,87,58,28,29.70,29.59,29.48,10,9,2,36,16,44,0.19,5,Rain-Thunderstorm,226
2013-1-30,50,43,35,34,23,14,79,51,22,30.11,30.01,29.72,10,10,10,29,16,37,0.00,2,,287
2013-1-31,63,46,28,30,22,16,69,44,19,30.36,30.16,30.06,10,10,10,25,12,33,0.00,1,,242